createdAt,value
2023-01-29T00:01:11.406Z,20.44
2023-01-29T00:03:40.311Z,20.45
2023-01-29T00:06:09.751Z,20.29
2023-01-29T00:08:38.104Z,20.60
2023-01-29T00:11:08.325Z,19.93
2023-01-29T00:13:36.561Z,19.96
2023-01-29T00:16:04.343Z,20.25
2023-01-29T00:18:31.847Z,20.27
2023-01-29T00:21:00.390Z,20.66
2023-01-29T00:23:27.445Z,20.21
2023-01-29T00:25:54.663Z,19.61
2023-01-29T00:28:21.863Z,20.29
2023-01-29T00:30:48.966Z,20.33
2023-01-29T00:33:16.088Z,20.92
2023-01-29T00:35:43.227Z,20.67
2023-01-29T00:38:11.884Z,20.96
2023-01-29T00:40:40.164Z,20.88
2023-01-29T00:43:07.305Z,21.05
2023-01-29T00:45:34.906Z,20.46
2023-01-29T00:48:02.060Z,20.30
2023-01-29T00:50:29.864Z,19.92
2023-01-29T00:52:57.063Z,19.86
2023-01-29T00:55:25.743Z,20.41
2023-01-29T00:57:52.824Z,20.23
2023-01-29T01:00:21.607Z,20.51
2023-01-29T01:02:48.789Z,19.54
2023-01-29T01:05:20.192Z,20.50
2023-01-29T01:07:48.981Z,20.04
2023-01-29T01:10:19.200Z,19.99
2023-01-29T01:12:49.267Z,20.00
2023-01-29T01:15:17.165Z,20.53
2023-01-29T01:17:44.317Z,20.55
2023-01-29T01:20:12.778Z,20.58
2023-01-29T01:22:39.966Z,20.24
2023-01-29T01:25:07.644Z,19.88
2023-01-29T01:27:34.992Z,20.25
2023-01-29T01:30:04.424Z,21.20
2023-01-29T01:32:31.563Z,20.61
2023-01-29T01:34:58.627Z,20.31
2023-01-29T01:37:25.743Z,20.66
2023-01-29T01:39:52.864Z,20.85
2023-01-29T01:42:20.025Z,20.60
2023-01-29T01:44:56.867Z,20.78
2023-01-29T01:47:31.022Z,20.51
2023-01-29T01:50:05.685Z,21.27
2023-01-29T01:52:33.742Z,20.67
2023-01-29T01:55:02.023Z,21.08
2023-01-29T01:57:32.367Z,20.77
2023-01-29T02:00:05.063Z,20.92
2023-01-29T02:02:33.736Z,20.81
2023-01-29T02:05:00.935Z,21.41
2023-01-29T02:07:28.083Z,20.83
2023-01-29T02:10:05.836Z,20.75
2023-01-29T02:12:34.162Z,20.90
2023-01-29T02:15:02.184Z,20.88
2023-01-29T02:17:29.417Z,20.72
2023-01-29T02:20:10.543Z,20.12
2023-01-29T02:23:08.526Z,21.03
2023-01-29T02:26:19.262Z,20.63
2023-01-29T02:28:59.043Z,20.29
2023-01-29T02:31:35.115Z,21.02
2023-01-29T02:34:17.483Z,20.90
2023-01-29T02:36:51.467Z,21.36
2023-01-29T02:39:29.663Z,20.89
2023-01-29T02:42:07.384Z,21.28
2023-01-29T02:44:42.584Z,20.00
2023-01-29T02:47:19.226Z,19.32
2023-01-29T02:49:52.999Z,19.70
2023-01-29T02:52:25.984Z,19.48
2023-01-29T02:54:59.602Z,19.27
2023-01-29T02:57:33.026Z,19.72
2023-01-29T03:00:10.094Z,19.52
2023-01-29T03:02:43.318Z,20.03
2023-01-29T03:05:15.705Z,20.03
2023-01-29T03:07:56.735Z,19.70
2023-01-29T03:10:30.022Z,18.99
2023-01-29T03:13:03.462Z,19.64
2023-01-29T03:15:39.845Z,18.97
2023-01-29T03:18:12.625Z,19.40
2023-01-29T03:20:46.102Z,18.84
2023-01-29T03:23:18.944Z,19.51
2023-01-29T03:25:46.495Z,18.69
2023-01-29T03:28:18.244Z,18.98
2023-01-29T03:30:51.955Z,19.16
2023-01-29T03:33:24.726Z,19.32
2023-01-29T03:35:58.728Z,18.44
2023-01-29T03:38:26.003Z,19.05
2023-01-29T03:40:59.719Z,19.37
2023-01-29T03:43:36.404Z,19.32
2023-01-29T03:46:11.666Z,18.38
2023-01-29T03:48:50.980Z,19.37
2023-01-29T03:51:28.664Z,19.08
2023-01-29T03:54:07.740Z,19.29
2023-01-29T03:56:45.665Z,17.85
2023-01-29T03:59:26.344Z,18.51
2023-01-29T04:01:58.282Z,18.71
2023-01-29T04:04:29.264Z,18.74
2023-01-29T04:07:04.423Z,18.85
2023-01-29T04:09:39.046Z,18.74
2023-01-29T04:12:08.719Z,18.72
2023-01-29T04:14:37.508Z,18.66
2023-01-29T04:17:13.186Z,19.05
2023-01-29T04:19:41.604Z,19.22
2023-01-29T04:22:17.691Z,19.71
2023-01-29T04:24:45.765Z,18.17
2023-01-29T04:27:26.423Z,18.88
2023-01-29T04:30:17.645Z,18.12
2023-01-29T04:33:03.151Z,18.63
2023-01-29T04:35:37.142Z,18.83
2023-01-29T04:38:15.414Z,18.40
2023-01-29T04:40:51.365Z,19.08
2023-01-29T04:43:28.241Z,18.09
2023-01-29T04:46:12.130Z,18.38
2023-01-29T04:49:00.493Z,18.18
2023-01-29T04:51:43.627Z,18.75
2023-01-29T04:54:22.741Z,18.01
2023-01-29T04:56:57.323Z,17.88
2023-01-29T04:59:33.701Z,18.52
2023-01-29T05:02:02.412Z,17.78
2023-01-29T05:04:35.885Z,18.47
2023-01-29T05:07:07.763Z,18.71
2023-01-29T05:09:38.031Z,18.86
2023-01-29T05:12:09.444Z,18.23
2023-01-29T05:14:40.002Z,18.74
2023-01-29T05:17:14.810Z,17.63
2023-01-29T05:19:44.022Z,18.73
2023-01-29T05:22:16.159Z,18.56
2023-01-29T05:24:43.337Z,18.38
2023-01-29T05:27:15.622Z,18.02
2023-01-29T05:29:47.157Z,18.54
2023-01-29T05:32:16.140Z,17.88
2023-01-29T05:34:44.783Z,17.89
2023-01-29T05:37:11.862Z,18.62
2023-01-29T05:39:39.002Z,18.29
2023-01-29T05:42:06.242Z,18.47
2023-01-29T05:44:33.450Z,18.97
2023-01-29T05:47:00.583Z,18.41
2023-01-29T05:49:27.674Z,18.84
2023-01-29T05:51:56.383Z,19.24
2023-01-29T05:54:23.548Z,18.40
2023-01-29T05:56:50.722Z,19.08
2023-01-29T05:59:17.842Z,18.59
2023-01-29T06:01:45.164Z,18.34
2023-01-29T06:04:12.325Z,18.30
2023-01-29T06:06:39.426Z,18.46
2023-01-29T06:09:10.183Z,19.15
2023-01-29T06:11:37.314Z,18.24
2023-01-29T06:14:04.402Z,19.18
2023-01-29T06:16:31.767Z,18.57
2023-01-29T06:18:58.942Z,18.67
2023-01-29T06:21:26.125Z,18.80
2023-01-29T06:23:53.493Z,19.23
2023-01-29T06:26:22.245Z,18.98
2023-01-29T06:28:50.444Z,18.99
2023-01-29T06:31:36.895Z,19.07
2023-01-29T06:34:05.624Z,18.86
2023-01-29T06:36:32.906Z,18.24
2023-01-29T06:39:00.191Z,18.24
2023-01-29T06:41:28.887Z,17.94
2023-01-29T06:43:56.082Z,18.36
2023-01-29T06:46:23.196Z,18.26
2023-01-29T06:48:50.340Z,18.11
2023-01-29T06:51:17.536Z,18.79
2023-01-29T06:53:46.265Z,18.44
2023-01-29T06:56:13.939Z,18.73
2023-01-29T06:58:42.543Z,18.89
2023-01-29T07:01:17.541Z,18.25
2023-01-29T07:03:52.826Z,18.43
2023-01-29T07:06:20.243Z,19.09
2023-01-29T07:08:47.410Z,18.66
2023-01-29T07:11:14.474Z,18.63
2023-01-29T07:13:43.043Z,18.33
2023-01-29T07:16:10.613Z,18.94
2023-01-29T07:18:37.926Z,18.67
2023-01-29T07:21:06.326Z,19.54
2023-01-29T07:23:33.491Z,19.10
2023-01-29T07:26:01.845Z,19.28
2023-01-29T07:28:29.304Z,18.74
2023-01-29T07:30:58.899Z,19.47
2023-01-29T07:33:26.924Z,19.99
2023-01-29T07:35:54.106Z,19.86
2023-01-29T07:38:21.247Z,19.59
2023-01-29T07:40:48.545Z,19.81
2023-01-29T07:43:15.844Z,20.12
2023-01-29T07:45:43.045Z,20.02
2023-01-29T07:48:13.183Z,19.65
2023-01-29T07:50:41.228Z,19.94
2023-01-29T07:53:14.111Z,19.62
2023-01-29T07:55:43.925Z,20.01
2023-01-29T07:58:11.650Z,20.30
2023-01-29T08:00:39.135Z,19.69
2023-01-29T08:03:10.544Z,20.43
2023-01-29T08:05:39.203Z,19.93
2023-01-29T08:08:07.812Z,19.60
2023-01-29T08:10:36.106Z,20.33
2023-01-29T08:13:04.812Z,20.17
2023-01-29T08:15:36.047Z,20.76
2023-01-29T08:18:05.156Z,20.25
2023-01-29T08:20:32.386Z,20.29
2023-01-29T08:23:03.749Z,20.27
2023-01-29T08:25:30.936Z,20.04
2023-01-29T08:27:59.599Z,20.48
2023-01-29T08:30:28.351Z,20.43
2023-01-29T08:32:55.783Z,20.64
2023-01-29T08:35:23.344Z,16.31
2023-01-29T08:37:54.626Z,11.80
2023-01-29T08:40:24.106Z,13.53
2023-01-29T08:42:51.227Z,15.02
2023-01-29T08:45:18.644Z,14.08
2023-01-29T08:47:46.786Z,13.99
2023-01-29T08:50:14.430Z,13.85
2023-01-29T08:52:41.782Z,14.56
2023-01-29T08:55:09.762Z,14.72
2023-01-29T08:57:39.298Z,19.44
2023-01-29T09:00:09.307Z,18.14
2023-01-29T09:02:36.504Z,18.51
2023-01-29T09:05:04.259Z,19.08
2023-01-29T09:07:31.445Z,19.61
2023-01-29T09:09:58.704Z,19.15
2023-01-29T09:12:25.905Z,19.85
2023-01-29T09:14:54.544Z,19.19
2023-01-29T09:17:21.713Z,19.99
2023-01-29T09:19:48.987Z,19.46
2023-01-29T09:22:16.187Z,19.66
2023-01-29T09:24:43.381Z,19.50
2023-01-29T09:27:10.503Z,18.47
2023-01-29T09:29:38.247Z,19.60
2023-01-29T09:32:07.585Z,18.39
2023-01-29T09:34:34.744Z,19.20
2023-01-29T09:37:01.945Z,18.89
2023-01-29T09:39:29.719Z,19.40
2023-01-29T09:42:08.346Z,18.90
2023-01-29T09:44:51.244Z,18.98
2023-01-29T09:47:24.373Z,19.80
2023-01-29T09:49:56.985Z,20.76
2023-01-29T09:52:30.423Z,19.72
2023-01-29T09:55:05.117Z,19.58
2023-01-29T09:57:41.744Z,19.40
2023-01-29T10:00:16.485Z,18.77
2023-01-29T10:03:15.864Z,19.43
2023-01-29T10:06:04.410Z,20.11
2023-01-29T10:09:03.043Z,21.01
2023-01-29T10:11:43.952Z,20.32
2023-01-29T10:14:22.350Z,20.20
2023-01-29T10:17:07.976Z,19.86
2023-01-29T10:20:01.386Z,20.88
2023-01-29T10:22:44.660Z,21.54
2023-01-29T10:25:16.230Z,21.10
2023-01-29T10:27:50.076Z,21.27
2023-01-29T10:30:30.950Z,21.27
2023-01-29T10:33:02.943Z,20.59
2023-01-29T10:35:37.735Z,21.12
2023-01-29T10:38:24.472Z,20.73
2023-01-29T10:41:05.603Z,20.24
2023-01-29T10:43:44.685Z,20.35
2023-01-29T10:46:25.523Z,19.89
2023-01-29T10:49:08.563Z,19.65
2023-01-29T10:51:56.827Z,19.84
2023-01-29T10:54:51.865Z,20.59
2023-01-29T10:57:41.905Z,20.33
2023-01-29T11:00:17.423Z,19.15
2023-01-29T11:02:46.089Z,20.37
2023-01-29T11:05:23.685Z,20.36
2023-01-29T11:08:03.523Z,19.72
2023-01-29T11:10:37.623Z,19.83
2023-01-29T11:13:06.068Z,20.42
2023-01-29T11:15:34.064Z,20.49
2023-01-29T11:18:03.005Z,19.66
2023-01-29T11:20:32.071Z,21.02
2023-01-29T11:23:00.747Z,20.23
2023-01-29T11:25:28.950Z,20.21
2023-01-29T11:27:58.885Z,21.03
2023-01-29T11:30:29.060Z,20.73
2023-01-29T11:33:09.048Z,20.74
2023-01-29T11:35:37.333Z,22.09
2023-01-29T11:38:19.863Z,21.46
2023-01-29T11:40:47.725Z,20.78
2023-01-29T11:43:28.163Z,21.23
2023-01-29T11:45:58.906Z,20.65
2023-01-29T11:48:39.730Z,21.34
2023-01-29T11:51:10.323Z,21.46
2023-01-29T11:53:43.665Z,21.21
2023-01-29T11:56:23.417Z,20.79
2023-01-29T11:58:57.739Z,20.66
2023-01-29T12:01:33.404Z,20.98
2023-01-29T12:04:02.906Z,20.50
2023-01-29T12:06:36.566Z,21.21
2023-01-29T12:09:17.307Z,22.00
2023-01-29T12:11:45.035Z,22.95
2023-01-29T12:14:28.173Z,22.48
2023-01-29T12:17:01.388Z,22.12
2023-01-29T12:19:36.764Z,22.15
2023-01-29T12:22:12.217Z,22.77
2023-01-29T12:24:50.265Z,21.72
2023-01-29T12:27:25.444Z,22.34
2023-01-29T12:30:02.163Z,21.56
2023-01-29T12:32:41.143Z,22.78
2023-01-29T12:35:20.284Z,21.87
2023-01-29T12:37:58.452Z,21.23
2023-01-29T12:40:33.504Z,22.05
2023-01-29T12:43:12.026Z,21.94
2023-01-29T12:45:43.385Z,21.85
2023-01-29T12:48:20.104Z,21.81
2023-01-29T12:50:50.283Z,22.99
2023-01-29T12:53:32.765Z,22.64
2023-01-29T12:56:11.762Z,22.68
2023-01-29T12:58:46.370Z,22.35
2023-01-29T13:01:24.394Z,22.43
2023-01-29T13:03:59.495Z,21.86
2023-01-29T13:06:38.486Z,21.90
2023-01-29T13:09:13.840Z,22.14
2023-01-29T13:11:55.824Z,21.94
2023-01-29T13:14:27.864Z,22.07
2023-01-29T13:17:09.424Z,21.95
2023-01-29T13:19:42.404Z,12.97
2023-01-29T13:22:21.006Z,17.98
2023-01-29T13:25:04.033Z,21.14
2023-01-29T13:27:39.798Z,21.36
2023-01-29T13:30:23.444Z,22.33
2023-01-29T13:32:55.793Z,21.86
2023-01-29T13:35:24.307Z,22.62
2023-01-29T13:37:56.945Z,22.61
2023-01-29T13:40:29.444Z,22.56
2023-01-29T13:43:02.075Z,22.48
2023-01-29T13:45:45.128Z,22.14
2023-01-29T13:48:26.470Z,22.26
2023-01-29T13:50:59.246Z,23.05
2023-01-29T13:53:31.712Z,23.65
2023-01-29T13:56:34.251Z,23.00
2023-01-29T13:59:08.745Z,22.68
2023-01-29T14:02:02.996Z,23.22
2023-01-29T14:04:33.365Z,22.74
2023-01-29T14:07:23.485Z,22.27
2023-01-29T14:10:28.544Z,22.51
2023-01-29T14:13:29.716Z,23.46
2023-01-29T14:16:36.790Z,22.70
2023-01-29T14:19:07.890Z,23.96
2023-01-29T14:21:40.212Z,22.85
2023-01-29T14:24:22.344Z,23.34
2023-01-29T14:26:57.074Z,23.09
2023-01-29T14:29:35.025Z,22.46
2023-01-29T14:32:21.728Z,22.05
2023-01-29T14:34:57.144Z,21.80
2023-01-29T14:37:35.658Z,21.79
2023-01-29T14:40:21.066Z,22.20
2023-01-29T14:43:01.610Z,22.54
2023-01-29T14:45:33.066Z,21.70
2023-01-29T14:48:24.495Z,21.44
2023-01-29T14:51:05.663Z,22.23
2023-01-29T14:53:55.038Z,22.20
2023-01-29T14:56:35.488Z,22.02
2023-01-29T14:59:16.647Z,21.27
2023-01-29T15:01:52.486Z,21.62
2023-01-29T15:04:28.641Z,21.00
2023-01-29T15:07:07.350Z,21.48
2023-01-29T15:09:43.928Z,21.32
2023-01-29T15:12:26.245Z,21.43
2023-01-29T15:15:17.338Z,21.76
2023-01-29T15:17:56.445Z,20.82
2023-01-29T15:20:32.706Z,21.34
2023-01-29T15:23:04.208Z,21.16
2023-01-29T15:25:49.110Z,21.08
2023-01-29T15:28:16.504Z,22.00
2023-01-29T15:30:44.622Z,21.16
2023-01-29T15:33:15.496Z,22.08
2023-01-29T15:35:43.658Z,21.88
2023-01-29T15:38:19.462Z,21.92
2023-01-29T15:40:54.543Z,22.24
2023-01-29T15:43:23.772Z,22.29
2023-01-29T15:45:53.749Z,21.95
2023-01-29T15:48:28.347Z,22.48
2023-01-29T15:50:57.166Z,22.21
2023-01-29T15:53:36.824Z,21.77
2023-01-29T15:56:12.989Z,22.09
2023-01-29T15:58:43.996Z,21.45
2023-01-29T16:01:17.618Z,21.41
2023-01-29T16:03:51.229Z,21.67
2023-01-29T16:06:22.647Z,22.28
2023-01-29T16:08:55.235Z,21.85
2023-01-29T16:11:23.185Z,22.09
2023-01-29T16:13:56.745Z,22.04
2023-01-29T16:16:26.555Z,22.25
2023-01-29T16:19:00.484Z,21.97
2023-01-29T16:21:39.105Z,22.20
2023-01-29T16:24:11.624Z,22.56
2023-01-29T16:26:46.279Z,22.21
2023-01-29T16:29:23.004Z,22.67
2023-01-29T16:31:56.243Z,23.22
2023-01-29T16:34:30.934Z,23.10
2023-01-29T16:37:02.209Z,22.57
2023-01-29T16:39:37.365Z,22.87
2023-01-29T16:42:27.746Z,22.52
2023-01-29T16:45:02.025Z,22.86
2023-01-29T16:48:05.903Z,23.39
2023-01-29T16:50:53.893Z,24.14
2023-01-29T16:53:23.823Z,25.34
2023-01-29T16:55:57.324Z,25.08
2023-01-29T16:58:29.644Z,23.97
2023-01-29T17:01:02.729Z,24.60
2023-01-29T17:03:37.842Z,24.15
2023-01-29T17:06:13.206Z,23.93
2023-01-29T17:08:44.823Z,24.90
2023-01-29T17:11:30.160Z,26.72
2023-01-29T17:13:59.384Z,29.16
2023-01-29T17:16:33.798Z,28.65
2023-01-29T17:19:13.563Z,26.40
2023-01-29T17:21:45.409Z,25.38
2023-01-29T17:24:14.484Z,24.33
2023-01-29T17:26:49.660Z,26.05
2023-01-29T17:29:25.303Z,26.89
2023-01-29T17:31:52.523Z,27.48
2023-01-29T17:34:19.684Z,31.27
2023-01-29T17:36:46.907Z,37.24
2023-01-29T17:39:20.851Z,33.69
2023-01-29T17:42:03.208Z,29.99
2023-01-29T17:44:30.424Z,27.99
2023-01-29T17:46:57.625Z,26.55
2023-01-29T17:49:29.846Z,25.31
2023-01-29T17:51:59.087Z,23.85
2023-01-29T17:54:27.670Z,27.33
2023-01-29T17:57:00.706Z,27.05
2023-01-29T17:59:34.383Z,28.65
2023-01-29T18:02:02.004Z,28.44
2023-01-29T18:04:29.288Z,27.57
2023-01-29T18:06:58.864Z,27.81
2023-01-29T18:09:29.049Z,27.42
2023-01-29T18:11:58.408Z,27.81
2023-01-29T18:14:25.625Z,27.16
2023-01-29T18:16:52.865Z,26.65
2023-01-29T18:19:22.692Z,26.72
2023-01-29T18:21:50.558Z,26.68
2023-01-29T18:24:18.645Z,27.66
2023-01-29T18:26:45.920Z,27.78
2023-01-29T18:29:14.685Z,27.95
2023-01-29T18:31:42.098Z,27.97
2023-01-29T18:34:09.326Z,28.77
2023-01-29T18:36:36.466Z,29.05
2023-01-29T18:39:03.823Z,31.05
2023-01-29T18:41:30.966Z,31.44
2023-01-29T18:43:58.144Z,31.19
2023-01-29T18:46:26.764Z,31.55
2023-01-29T18:48:53.934Z,31.33
2023-01-29T18:51:21.104Z,32.55
2023-01-29T18:53:50.271Z,33.03
2023-01-29T18:56:18.236Z,32.51
2023-01-29T18:58:45.524Z,32.44
2023-01-29T19:01:19.772Z,31.64
2023-01-29T19:03:48.724Z,32.72
2023-01-29T19:06:15.962Z,35.35
2023-01-29T19:08:43.264Z,35.47
2023-01-29T19:11:11.519Z,33.92
2023-01-29T19:13:38.736Z,33.53
2023-01-29T19:16:08.167Z,33.38
2023-01-29T19:18:35.410Z,31.79
2023-01-29T19:21:09.727Z,32.40
2023-01-29T19:23:37.395Z,32.13
2023-01-29T19:26:05.125Z,31.67
2023-01-29T19:28:33.307Z,32.43
2023-01-29T19:31:01.479Z,31.46
2023-01-29T19:33:29.349Z,32.51
2023-01-29T19:35:56.995Z,31.98
2023-01-29T19:38:26.590Z,31.78
2023-01-29T19:40:53.824Z,31.82
2023-01-29T19:43:21.613Z,32.02
2023-01-29T19:45:50.307Z,31.78
2023-01-29T19:48:18.095Z,32.25
2023-01-29T19:50:51.390Z,31.26
2023-01-29T19:53:18.510Z,25.05
2023-01-29T19:55:47.167Z,17.77
2023-01-29T19:58:14.691Z,22.21
2023-01-29T20:00:41.868Z,23.29
2023-01-29T20:03:09.029Z,26.40
2023-01-29T20:05:36.687Z,29.69
2023-01-29T20:08:04.260Z,30.01
2023-01-29T20:10:31.570Z,30.56
2023-01-29T20:13:00.367Z,30.77
2023-01-29T20:15:27.584Z,30.02
2023-01-29T20:17:54.686Z,31.00
2023-01-29T20:20:21.910Z,30.75
2023-01-29T20:22:51.498Z,30.58
2023-01-29T20:25:19.985Z,30.77
2023-01-29T20:27:47.525Z,30.58
2023-01-29T20:30:16.958Z,30.25
2023-01-29T20:32:44.286Z,30.73
2023-01-29T20:35:11.507Z,30.81
2023-01-29T20:37:38.708Z,31.13
2023-01-29T20:40:07.284Z,30.62
2023-01-29T20:42:34.471Z,30.53
2023-01-29T20:45:01.808Z,30.32
2023-01-29T20:47:30.406Z,30.12
2023-01-29T20:49:58.165Z,29.79
2023-01-29T20:52:25.486Z,29.53
2023-01-29T20:54:52.807Z,29.47
2023-01-29T20:57:22.049Z,30.13
2023-01-29T20:59:49.368Z,29.38
2023-01-29T21:02:16.729Z,29.20
2023-01-29T21:04:45.324Z,29.70
2023-01-29T21:07:12.745Z,29.03
2023-01-29T21:09:40.141Z,29.10
2023-01-29T21:12:07.545Z,28.61
2023-01-29T21:14:34.931Z,29.01
2023-01-29T21:17:02.608Z,29.45
2023-01-29T21:19:29.745Z,28.15
2023-01-29T21:21:58.585Z,28.32
2023-01-29T21:24:27.336Z,28.55
2023-01-29T21:26:54.746Z,27.36
2023-01-29T21:29:22.575Z,27.54
2023-01-29T21:31:50.202Z,28.29
2023-01-29T21:34:18.325Z,27.41
2023-01-29T21:36:45.984Z,27.76
2023-01-29T21:39:14.744Z,28.02
2023-01-29T21:41:44.265Z,27.53
2023-01-29T21:44:11.712Z,27.20
2023-01-29T21:46:39.480Z,26.49
2023-01-29T21:49:07.474Z,27.00
2023-01-29T21:51:35.626Z,27.82
2023-01-29T21:54:02.743Z,28.10
2023-01-29T21:56:31.369Z,27.94
2023-01-29T21:58:58.543Z,27.82
2023-01-29T22:01:37.831Z,27.73
2023-01-29T22:04:05.944Z,28.47
2023-01-29T22:06:33.204Z,27.98
2023-01-29T22:09:00.383Z,27.55
2023-01-29T22:11:27.803Z,27.59
2023-01-29T22:13:56.966Z,26.68
2023-01-29T22:16:24.186Z,27.37
2023-01-29T22:18:51.402Z,26.74
2023-01-29T22:21:18.647Z,26.47
2023-01-29T22:23:49.001Z,27.17
2023-01-29T22:26:16.856Z,27.27
2023-01-29T22:28:46.265Z,27.76
2023-01-29T22:31:14.993Z,26.74
2023-01-29T22:33:44.502Z,26.52
2023-01-29T22:36:11.711Z,26.60
2023-01-29T22:38:38.964Z,26.32
2023-01-29T22:41:06.203Z,25.98
2023-01-29T22:43:33.395Z,25.89
2023-01-29T22:46:00.620Z,25.81
2023-01-29T22:48:29.286Z,25.79
2023-01-29T22:50:57.839Z,25.45
2023-01-29T22:53:25.105Z,25.41
2023-01-29T22:55:55.521Z,25.53
2023-01-29T22:58:22.732Z,25.39
2023-01-29T23:00:50.784Z,24.94
2023-01-29T23:03:18.127Z,24.69
2023-01-29T23:05:46.728Z,25.00
2023-01-29T23:08:13.870Z,24.75
2023-01-29T23:10:41.474Z,24.97
2023-01-29T23:13:08.683Z,24.12
2023-01-29T23:15:35.826Z,24.87
2023-01-29T23:18:04.062Z,24.37
2023-01-29T23:20:31.344Z,24.97
2023-01-29T23:23:00.145Z,24.95
2023-01-29T23:25:27.508Z,24.97
2023-01-29T23:27:54.623Z,24.61
2023-01-29T23:30:21.735Z,24.94
2023-01-29T23:32:49.099Z,24.62
2023-01-29T23:35:16.343Z,24.46
2023-01-29T23:37:43.581Z,24.93
2023-01-29T23:40:13.302Z,24.88
2023-01-29T23:42:40.462Z,24.28
2023-01-29T23:45:08.622Z,24.05
2023-01-29T23:47:35.725Z,23.93
2023-01-29T23:50:02.902Z,23.97
2023-01-29T23:52:30.385Z,24.33
2023-01-29T23:54:58.165Z,24.67
2023-01-29T23:57:26.783Z,24.27
2023-01-29T23:59:53.943Z,24.71
